SAWP/PMQ METAR and TAF weather

Enter ICAO airport designator
Station Type Date Time Source
SAWP METAR 2020/07/02 14:30 UTC NOAA

SAWP 021430Z 34005KT 1500 BR BKN005 BKN012 01/01 Q1007 REFG


Station Type Date Time Source
SAWP Decoded METAR 2020/07/02 14:30 UTC NOAA

Perito Moreno Aerodrome, Argentina (SAWP) 46-31S 071-01W 429M
Jul 02, 2020 - 10:30 AM EDT / 2020.07.02 1430 UTC
Wind: from the NNW (340 degrees) at 6 MPH (5 KT):0
Visibility: less than 1 mile:0
Sky conditions: mostly cloudy
Weather: mist
Temperature: 33 F (1 C)
Windchill: 26 F (-3 C):1
Dew Point: 33 F (1 C)
Relative Humidity: 100%
Pressure (altimeter): 29.74 in. Hg (1007 hPa)
ob: SAWP 021430Z 34005KT 1500 BR BKN005 BKN012 01/01 Q1007 REFG
cycle: 14

Station Type Date Time Source
SAWP TAF UTC NOAA

Error!

Example: see airport list